sensor_id;sensor_type;location;lat;lon;timestamp;pressure;altitude;pressure_sealevel;temperature
28905;BMP280;60848;53.884;11.446;2023-04-01T00:01:10;99409.97;;;11.73
28905;BMP280;60848;53.884;11.446;2023-04-01T00:03:40;99414.16;;;11.70
28905;BMP280;60848;53.884;11.446;2023-04-01T00:06:10;99420.25;;;11.64
28905;BMP280;60848;53.884;11.446;2023-04-01T00:08:39;99421.75;;;11.61
28905;BMP280;60848;53.884;11.446;2023-04-01T00:11:09;99425.34;;;11.48
28905;BMP280;60848;53.884;11.446;2023-04-01T00:13:37;99412.66;;;11.43
28905;BMP280;60848;53.884;11.446;2023-04-01T00:16:06;99428.84;;;11.38
28905;BMP280;60848;53.884;11.446;2023-04-01T00:18:47;99425.19;;;11.28
28905;BMP280;60848;53.884;11.446;2023-04-01T00:21:15;99428.00;;;11.14
28905;BMP280;60848;53.884;11.446;2023-04-01T00:23:44;99431.13;;;11.06
28905;BMP280;60848;53.884;11.446;2023-04-01T00:26:14;99426.78;;;10.92
28905;BMP280;60848;53.884;11.446;2023-04-01T00:28:45;99433.63;;;10.83
28905;BMP280;60848;53.884;11.446;2023-04-01T00:31:14;99439.75;;;10.69
28905;BMP280;60848;53.884;11.446;2023-04-01T00:33:43;99429.47;;;10.51
28905;BMP280;60848;53.884;11.446;2023-04-01T00:36:13;99428.41;;;10.45
28905;BMP280;60848;53.884;11.446;2023-04-01T00:38:42;99434.84;;;10.41
28905;BMP280;60848;53.884;11.446;2023-04-01T00:41:11;99443.13;;;10.32
28905;BMP280;60848;53.884;11.446;2023-04-01T00:43:44;99434.19;;;10.26
28905;BMP280;60848;53.884;11.446;2023-04-01T00:46:12;99440.22;;;10.20
28905;BMP280;60848;53.884;11.446;2023-04-01T00:48:42;99437.28;;;10.11
28905;BMP280;60848;53.884;11.446;2023-04-01T00:51:14;99437.75;;;10.02
28905;BMP280;60848;53.884;11.446;2023-04-01T00:53:45;99442.28;;;9.98
28905;BMP280;60848;53.884;11.446;2023-04-01T00:56:16;99454.63;;;9.87
28905;BMP280;60848;53.884;11.446;2023-04-01T00:58:49;99453.63;;;9.74
28905;BMP280;60848;53.884;11.446;2023-04-01T01:01:19;99452.94;;;9.63
28905;BMP280;60848;53.884;11.446;2023-04-01T01:03:48;99450.00;;;9.54
28905;BMP280;60848;53.884;11.446;2023-04-01T01:06:26;99483.91;;;9.51
28905;BMP280;60848;53.884;11.446;2023-04-01T01:09:21;99461.22;;;9.41
28905;BMP280;60848;53.884;11.446;2023-04-01T01:11:56;99453.84;;;9.28
28905;BMP280;60848;53.884;11.446;2023-04-01T01:14:36;99460.97;;;9.17
28905;BMP280;60848;53.884;11.446;2023-04-01T01:17:11;99452.44;;;9.10
28905;BMP280;60848;53.884;11.446;2023-04-01T01:25:54;99456.56;;;9.00
28905;BMP280;60848;53.884;11.446;2023-04-01T01:28:32;99454.63;;;9.25
28905;BMP280;60848;53.884;11.446;2023-04-01T01:31:09;99458.31;;;9.28
28905;BMP280;60848;53.884;11.446;2023-04-01T01:33:55;99460.94;;;9.21
28905;BMP280;60848;53.884;11.446;2023-04-01T01:36:26;99455.03;;;9.13
28905;BMP280;60848;53.884;11.446;2023-04-01T01:38:55;99457.25;;;9.15
28905;BMP280;60848;53.884;11.446;2023-04-01T01:41:24;99463.22;;;9.08
28905;BMP280;60848;53.884;11.446;2023-04-01T01:43:53;99455.41;;;9.05
28905;BMP280;60848;53.884;11.446;2023-04-01T01:46:24;99459.16;;;9.00
28905;BMP280;60848;53.884;11.446;2023-04-01T01:48:53;99469.56;;;8.93
28905;BMP280;60848;53.884;11.446;2023-04-01T01:51:23;99469.97;;;8.92
28905;BMP280;60848;53.884;11.446;2023-04-01T01:53:53;99471.47;;;8.86
28905;BMP280;60848;53.884;11.446;2023-04-01T01:56:23;99466.28;;;8.82
28905;BMP280;60848;53.884;11.446;2023-04-01T01:58:55;99482.66;;;8.76
28905;BMP280;60848;53.884;11.446;2023-04-01T02:01:26;99491.59;;;8.71
28905;BMP280;60848;53.884;11.446;2023-04-01T02:03:55;99478.56;;;8.57
28905;BMP280;60848;53.884;11.446;2023-04-01T02:06:26;99489.41;;;8.52
28905;BMP280;60848;53.884;11.446;2023-04-01T02:08:59;99502.44;;;8.49
28905;BMP280;60848;53.884;11.446;2023-04-01T02:11:31;99503.88;;;8.39
28905;BMP280;60848;53.884;11.446;2023-04-01T02:14:02;99489.00;;;8.33
28905;BMP280;60848;53.884;11.446;2023-04-01T02:16:32;99480.09;;;8.23
28905;BMP280;60848;53.884;11.446;2023-04-01T02:19:02;99476.34;;;8.14
28905;BMP280;60848;53.884;11.446;2023-04-01T02:21:34;99484.13;;;8.03
28905;BMP280;60848;53.884;11.446;2023-04-01T02:24:07;99487.84;;;7.95
28905;BMP280;60848;53.884;11.446;2023-04-01T02:26:36;99485.25;;;7.91
28905;BMP280;60848;53.884;11.446;2023-04-01T02:29:04;99492.69;;;7.89
28905;BMP280;60848;53.884;11.446;2023-04-01T02:31:33;99509.03;;;7.93
28905;BMP280;60848;53.884;11.446;2023-04-01T02:34:02;99503.09;;;7.96
28905;BMP280;60848;53.884;11.446;2023-04-01T02:36:31;99504.22;;;7.95
28905;BMP280;60848;53.884;11.446;2023-04-01T02:38:59;99502.31;;;7.92
28905;BMP280;60848;53.884;11.446;2023-04-01T02:41:31;99529.84;;;7.93
28905;BMP280;60848;53.884;11.446;2023-04-01T02:43:59;99514.56;;;7.85
28905;BMP280;60848;53.884;11.446;2023-04-01T02:46:27;99514.19;;;7.83
28905;BMP280;60848;53.884;11.446;2023-04-01T02:48:56;99513.47;;;7.79
28905;BMP280;60848;53.884;11.446;2023-04-01T02:51:25;99518.25;;;7.73
28905;BMP280;60848;53.884;11.446;2023-04-01T02:53:53;99536.09;;;7.75
28905;BMP280;60848;53.884;11.446;2023-04-01T02:56:22;99532.38;;;7.69
28905;BMP280;60848;53.884;11.446;2023-04-01T02:58:51;99529.00;;;7.65
28905;BMP280;60848;53.884;11.446;2023-04-01T03:01:20;99545.72;;;7.64
28905;BMP280;60848;53.884;11.446;2023-04-01T03:03:49;99546.78;;;7.56
28905;BMP280;60848;53.884;11.446;2023-04-01T03:06:17;99526.34;;;7.54
28905;BMP280;60848;53.884;11.446;2023-04-01T03:08:46;99540.81;;;7.52
28905;BMP280;60848;53.884;11.446;2023-04-01T03:11:14;99534.16;;;7.51
28905;BMP280;60848;53.884;11.446;2023-04-01T03:13:42;99550.84;;;7.50
28905;BMP280;60848;53.884;11.446;2023-04-01T03:16:12;99543.03;;;7.46
28905;BMP280;60848;53.884;11.446;2023-04-01T03:18:40;99548.63;;;7.45
28905;BMP280;60848;53.884;11.446;2023-04-01T03:21:15;99555.66;;;7.44
28905;BMP280;60848;53.884;11.446;2023-04-01T03:23:43;99548.22;;;7.39
28905;BMP280;60848;53.884;11.446;2023-04-01T03:26:12;99555.59;;;7.34
28905;BMP280;60848;53.884;11.446;2023-04-01T03:28:41;99551.88;;;7.31
28905;BMP280;60848;53.884;11.446;2023-04-01T03:31:09;99562.97;;;7.28
28905;BMP280;60848;53.884;11.446;2023-04-01T03:33:39;99568.56;;;7.23
28905;BMP280;60848;53.884;11.446;2023-04-01T03:36:08;99580.44;;;7.24
28905;BMP280;60848;53.884;11.446;2023-04-01T03:38:38;99562.91;;;7.18
28905;BMP280;60848;53.884;11.446;2023-04-01T03:41:07;99560.31;;;7.18
28905;BMP280;60848;53.884;11.446;2023-04-01T03:43:35;99572.91;;;7.16
28905;BMP280;60848;53.884;11.446;2023-04-01T03:46:03;99578.88;;;7.13
28905;BMP280;60848;53.884;11.446;2023-04-01T03:48:31;99578.13;;;7.12
28905;BMP280;60848;53.884;11.446;2023-04-01T03:51:01;99604.13;;;7.12
28905;BMP280;60848;53.884;11.446;2023-04-01T03:53:29;99617.03;;;7.05
28905;BMP280;60848;53.884;11.446;2023-04-01T03:55:58;99592.50;;;7.03
28905;BMP280;60848;53.884;11.446;2023-04-01T03:58:26;99604.38;;;7.04
28905;BMP280;60848;53.884;11.446;2023-04-01T04:00:54;99596.19;;;6.98
28905;BMP280;60848;53.884;11.446;2023-04-01T04:03:22;99593.97;;;6.97
28905;BMP280;60848;53.884;11.446;2023-04-01T04:05:51;99596.91;;;6.95
28905;BMP280;60848;53.884;11.446;2023-04-01T04:08:21;99595.81;;;6.96
28905;BMP280;60848;53.884;11.446;2023-04-01T04:10:54;99598.06;;;7.01
28905;BMP280;60848;53.884;11.446;2023-04-01T04:13:23;99603.63;;;7.03
28905;BMP280;60848;53.884;11.446;2023-04-01T04:15:51;99616.28;;;7.05
28905;BMP280;60848;53.884;11.446;2023-04-01T04:18:19;99610.34;;;7.01
28905;BMP280;60848;53.884;11.446;2023-04-01T04:20:48;99627.00;;;6.96
28905;BMP280;60848;53.884;11.446;2023-04-01T04:23:18;99640.28;;;6.88
28905;BMP280;60848;53.884;11.446;2023-04-01T04:25:55;99628.00;;;6.84
28905;BMP280;60848;53.884;11.446;2023-04-01T04:28:23;99632.38;;;6.77
28905;BMP280;60848;53.884;11.446;2023-04-01T04:30:52;99617.13;;;6.72
28905;BMP280;60848;53.884;11.446;2023-04-01T04:33:21;99629.69;;;6.66
28905;BMP280;60848;53.884;11.446;2023-04-01T04:35:50;99634.84;;;6.63
28905;BMP280;60848;53.884;11.446;2023-04-01T04:38:18;99644.09;;;6.60
28905;BMP280;60848;53.884;11.446;2023-04-01T04:40:47;99642.91;;;6.54
28905;BMP280;60848;53.884;11.446;2023-04-01T04:43:17;99634.00;;;6.55
28905;BMP280;60848;53.884;11.446;2023-04-01T04:45:46;99658.44;;;6.51
28905;BMP280;60848;53.884;11.446;2023-04-01T04:48:15;99652.13;;;6.48
28905;BMP280;60848;53.884;11.446;2023-04-01T04:50:46;99655.81;;;6.47
28905;BMP280;60848;53.884;11.446;2023-04-01T04:53:16;99665.81;;;6.45
28905;BMP280;60848;53.884;11.446;2023-04-01T04:55:45;99679.91;;;6.44
28905;BMP280;60848;53.884;11.446;2023-04-01T04:58:13;99666.06;;;6.37
28905;BMP280;60848;53.884;11.446;2023-04-01T05:00:43;99663.84;;;6.39
28905;BMP280;60848;53.884;11.446;2023-04-01T05:03:12;99665.38;;;6.40
28905;BMP280;60848;53.884;11.446;2023-04-01T05:05:48;99692.03;;;6.37
28905;BMP280;60848;53.884;11.446;2023-04-01T05:08:16;99681.66;;;6.37
28905;BMP280;60848;53.884;11.446;2023-04-01T05:10:45;99684.25;;;6.37
28905;BMP280;60848;53.884;11.446;2023-04-01T05:13:13;99671.28;;;6.40
28905;BMP280;60848;53.884;11.446;2023-04-01T05:15:43;99688.41;;;6.45
28905;BMP280;60848;53.884;11.446;2023-04-01T05:18:11;99682.41;;;6.37
28905;BMP280;60848;53.884;11.446;2023-04-01T05:20:45;99694.22;;;6.35
28905;BMP280;60848;53.884;11.446;2023-04-01T05:23:13;99685.69;;;6.34
28905;BMP280;60848;53.884;11.446;2023-04-01T05:25:41;99694.59;;;6.33
28905;BMP280;60848;53.884;11.446;2023-04-01T05:28:09;99690.47;;;6.32
28905;BMP280;60848;53.884;11.446;2023-04-01T05:30:39;99698.66;;;6.34
28905;BMP280;60848;53.884;11.446;2023-04-01T05:33:10;99700.41;;;6.27
28905;BMP280;60848;53.884;11.446;2023-04-01T05:35:39;99700.78;;;6.25
28905;BMP280;60848;53.884;11.446;2023-04-01T05:38:07;99711.53;;;6.24
28905;BMP280;60848;53.884;11.446;2023-04-01T05:40:36;99709.97;;;6.19
28905;BMP280;60848;53.884;11.446;2023-04-01T05:43:04;99707.38;;;6.19
28905;BMP280;60848;53.884;11.446;2023-04-01T05:45:32;99712.97;;;6.21
28905;BMP280;60848;53.884;11.446;2023-04-01T05:48:01;99734.13;;;6.23
28905;BMP280;60848;53.884;11.446;2023-04-01T05:50:31;99724.13;;;6.25
28905;BMP280;60848;53.884;11.446;2023-04-01T05:53:00;99713.75;;;6.25
28905;BMP280;60848;53.884;11.446;2023-04-01T05:55:28;99723.78;;;6.27
28905;BMP280;60848;53.884;11.446;2023-04-01T05:57:56;99727.44;;;6.22
28905;BMP280;60848;53.884;11.446;2023-04-01T06:00:25;99727.84;;;6.24
28905;BMP280;60848;53.884;11.446;2023-04-01T06:02:53;99733.75;;;6.21
28905;BMP280;60848;53.884;11.446;2023-04-01T06:05:23;99743.00;;;6.22
28905;BMP280;60848;53.884;11.446;2023-04-01T06:07:58;99748.56;;;6.21
28905;BMP280;60848;53.884;11.446;2023-04-01T06:10:37;99746.25;;;6.16
28905;BMP280;60848;53.884;11.446;2023-04-01T06:13:10;99748.44;;;6.14
28905;BMP280;60848;53.884;11.446;2023-04-01T06:15:41;99746.56;;;6.11
28905;BMP280;60848;53.884;11.446;2023-04-01T06:18:42;99759.25;;;6.16
28905;BMP280;60848;53.884;11.446;2023-04-01T06:21:23;99756.56;;;6.12
28905;BMP280;60848;53.884;11.446;2023-04-01T06:23:58;99767.34;;;6.14
28905;BMP280;60848;53.884;11.446;2023-04-01T06:26:31;99762.50;;;6.13
28905;BMP280;60848;53.884;11.446;2023-04-01T06:29:19;99772.13;;;6.12
28905;BMP280;60848;53.884;11.446;2023-04-01T06:34:50;99778.81;;;6.10
28905;BMP280;60848;53.884;11.446;2023-04-01T06:37:39;99784.72;;;6.10
28905;BMP280;60848;53.884;11.446;2023-04-01T06:40:46;99788.09;;;6.14
28905;BMP280;60848;53.884;11.446;2023-04-01T06:43:17;99791.81;;;6.13
28905;BMP280;60848;53.884;11.446;2023-04-01T06:45:51;99798.22;;;6.19
28905;BMP280;60848;53.884;11.446;2023-04-01T06:48:35;99808.16;;;6.14
28905;BMP280;60848;53.884;11.446;2023-04-01T06:51:11;99792.63;;;6.17
28905;BMP280;60848;53.884;11.446;2023-04-01T06:53:43;99804.16;;;6.20
28905;BMP280;60848;53.884;11.446;2023-04-01T06:56:17;99808.66;;;6.23
28905;BMP280;60848;53.884;11.446;2023-04-01T06:58:47;99810.19;;;6.27
28905;BMP280;60848;53.884;11.446;2023-04-01T07:01:19;99807.94;;;6.26
28905;BMP280;60848;53.884;11.446;2023-04-01T07:03:51;99821.31;;;6.28
28905;BMP280;60848;53.884;11.446;2023-04-01T07:06:25;99828.75;;;6.29
28905;BMP280;60848;53.884;11.446;2023-04-01T07:08:55;99825.00;;;6.27
28905;BMP280;60848;53.884;11.446;2023-04-01T07:11:33;99820.63;;;6.31
28905;BMP280;60848;53.884;11.446;2023-04-01T07:14:03;99837.31;;;6.30
28905;BMP280;60848;53.884;11.446;2023-04-01T07:16:35;99835.78;;;6.29
28905;BMP280;60848;53.884;11.446;2023-04-01T07:19:08;99843.22;;;6.30
28905;BMP280;60848;53.884;11.446;2023-04-01T07:21:41;99839.50;;;6.28
28905;BMP280;60848;53.884;11.446;2023-04-01T07:24:13;99837.22;;;6.26
28905;BMP280;60848;53.884;11.446;2023-04-01T07:26:45;99843.19;;;6.27
28905;BMP280;60848;53.884;11.446;2023-04-01T07:29:14;99851.72;;;6.27
28905;BMP280;60848;53.884;11.446;2023-04-01T07:32:11;99870.28;;;6.29
28905;BMP280;60848;53.884;11.446;2023-04-01T07:34:53;99853.97;;;6.29
28905;BMP280;60848;53.884;11.446;2023-04-01T07:37:27;99858.75;;;6.27
28905;BMP280;60848;53.884;11.446;2023-04-01T07:40:01;99867.66;;;6.26
28905;BMP280;60848;53.884;11.446;2023-04-01T07:42:37;99870.94;;;6.23
28905;BMP280;60848;53.884;11.446;2023-04-01T07:45:09;99872.47;;;6.27
28905;BMP280;60848;53.884;11.446;2023-04-01T07:47:50;99878.09;;;6.29
28905;BMP280;60848;53.884;11.446;2023-04-01T07:50:26;99875.91;;;6.31
28905;BMP280;60848;53.884;11.446;2023-04-01T07:53:01;99876.25;;;6.30
28905;BMP280;60848;53.884;11.446;2023-04-01T07:55:33;99887.66;;;6.25
28905;BMP280;60848;53.884;11.446;2023-04-01T07:58:09;99914.66;;;6.21
28905;BMP280;60848;53.884;11.446;2023-04-01T08:00:43;99900.19;;;6.20
28905;BMP280;60848;53.884;11.446;2023-04-01T08:03:26;99900.59;;;6.22
28905;BMP280;60848;53.884;11.446;2023-04-01T08:06:00;99907.56;;;6.18
28905;BMP280;60848;53.884;11.446;2023-04-01T08:08:37;99891.59;;;6.16
28905;BMP280;60848;53.884;11.446;2023-04-01T08:11:12;99910.22;;;6.21
28905;BMP280;60848;53.884;11.446;2023-04-01T08:13:45;99908.03;;;6.23
28905;BMP280;60848;53.884;11.446;2023-04-01T08:16:17;99917.66;;;6.23
28905;BMP280;60848;53.884;11.446;2023-04-01T08:18:53;99926.56;;;6.22
28905;BMP280;60848;53.884;11.446;2023-04-01T08:21:25;99924.69;;;6.22
28905;BMP280;60848;53.884;11.446;2023-04-01T08:23:56;99925.44;;;6.23
28905;BMP280;60848;53.884;11.446;2023-04-01T08:26:29;99931.78;;;6.25
28905;BMP280;60848;53.884;11.446;2023-04-01T08:29:03;99944.00;;;6.25
28905;BMP280;60848;53.884;11.446;2023-04-01T08:31:35;99936.97;;;6.25
28905;BMP280;60848;53.884;11.446;2023-04-01T08:34:10;99928.41;;;6.25
28905;BMP280;60848;53.884;11.446;2023-04-01T08:36:43;99942.56;;;6.27
28905;BMP280;60848;53.884;11.446;2023-04-01T08:39:16;99935.94;;;6.30
28905;BMP280;60848;53.884;11.446;2023-04-01T08:41:56;99964.50;;;6.30
28905;BMP280;60848;53.884;11.446;2023-04-01T08:47:42;99955.00;;;6.18
28905;BMP280;60848;53.884;11.446;2023-04-01T08:50:36;99958.38;;;6.19
28905;BMP280;60848;53.884;11.446;2023-04-01T08:53:12;99965.75;;;6.17
28905;BMP280;60848;53.884;11.446;2023-04-01T08:55:47;99958.03;;;6.20
28905;BMP280;60848;53.884;11.446;2023-04-01T08:58:37;99966.97;;;6.23
28905;BMP280;60848;53.884;11.446;2023-04-01T09:01:20;99975.78;;;6.18
28905;BMP280;60848;53.884;11.446;2023-04-01T09:04:19;99979.81;;;6.16
28905;BMP280;60848;53.884;11.446;2023-04-01T09:07:04;99969.78;;;6.14
28905;BMP280;60848;53.884;11.446;2023-04-01T09:12:40;99980.06;;;6.07
28905;BMP280;60848;53.884;11.446;2023-04-01T09:18:13;99992.25;;;6.07
28905;BMP280;60848;53.884;11.446;2023-04-01T09:20:47;100006.34;;;6.06
28905;BMP280;60848;53.884;11.446;2023-04-01T09:23:27;100002.38;;;6.12
28905;BMP280;60848;53.884;11.446;2023-04-01T09:26:05;99995.72;;;6.14
28905;BMP280;60848;53.884;11.446;2023-04-01T09:28:41;100000.91;;;6.14
28905;BMP280;60848;53.884;11.446;2023-04-01T09:34:14;100014.97;;;6.10
28905;BMP280;60848;53.884;11.446;2023-04-01T09:36:52;100027.97;;;6.13
28905;BMP280;60848;53.884;11.446;2023-04-01T09:39:34;100029.03;;;6.12
28905;BMP280;60848;53.884;11.446;2023-04-01T09:42:22;100037.22;;;6.11
28905;BMP280;60848;53.884;11.446;2023-04-01T09:44:57;100043.50;;;6.10
28905;BMP280;60848;53.884;11.446;2023-04-01T09:47:35;100052.28;;;6.05
28905;BMP280;60848;53.884;11.446;2023-04-01T09:50:25;100056.25;;;5.99
28905;BMP280;60848;53.884;11.446;2023-04-01T09:52:57;100056.53;;;5.94
28905;BMP280;60848;53.884;11.446;2023-04-01T09:58:42;100052.09;;;5.95
28905;BMP280;60848;53.884;11.446;2023-04-01T10:01:27;100059.03;;;5.91
28905;BMP280;60848;53.884;11.446;2023-04-01T10:10:22;100066.28;;;5.82
28905;BMP280;60848;53.884;11.446;2023-04-01T10:13:20;100084.44;;;5.82
28905;BMP280;60848;53.884;11.446;2023-04-01T10:26:10;100081.47;;;5.83
28905;BMP280;60848;53.884;11.446;2023-04-01T10:35:21;100098.97;;;5.86
28905;BMP280;60848;53.884;11.446;2023-04-01T10:41:34;100104.25;;;5.90
28905;BMP280;60848;53.884;11.446;2023-04-01T10:44:35;100112.03;;;5.90
28905;BMP280;60848;53.884;11.446;2023-04-01T10:56:46;100119.06;;;5.89
28905;BMP280;60848;53.884;11.446;2023-04-01T10:59:52;100119.53;;;5.95
28905;BMP280;60848;53.884;11.446;2023-04-01T11:03:23;100109.97;;;5.99
28905;BMP280;60848;53.884;11.446;2023-04-01T11:12:50;100136.78;;;5.87
28905;BMP280;60848;53.884;11.446;2023-04-01T11:27:47;100164.63;;;6.06
28905;BMP280;60848;53.884;11.446;2023-04-01T11:30:36;100156.84;;;6.06
28905;BMP280;60848;53.884;11.446;2023-04-01T11:33:11;100174.34;;;6.09
28905;BMP280;60848;53.884;11.446;2023-04-01T11:36:19;100172.16;;;6.11
28905;BMP280;60848;53.884;11.446;2023-04-01T11:39:05;100188.00;;;6.06
28905;BMP280;60848;53.884;11.446;2023-04-01T11:41:40;100187.41;;;5.97
28905;BMP280;60848;53.884;11.446;2023-04-01T11:44:16;100190.81;;;6.01
28905;BMP280;60848;53.884;11.446;2023-04-01T11:46:53;100186.75;;;6.00
28905;BMP280;60848;53.884;11.446;2023-04-01T11:49:33;100192.00;;;6.03
28905;BMP280;60848;53.884;11.446;2023-04-01T11:52:10;100198.94;;;5.99
28905;BMP280;60848;53.884;11.446;2023-04-01T11:54:55;100193.75;;;5.99
28905;BMP280;60848;53.884;11.446;2023-04-01T11:57:41;100224.13;;;5.99
28905;BMP280;60848;53.884;11.446;2023-04-01T12:00:19;100203.38;;;5.99
28905;BMP280;60848;53.884;11.446;2023-04-01T12:03:01;100212.69;;;6.00
28905;BMP280;60848;53.884;11.446;2023-04-01T12:05:38;100205.63;;;6.00
28905;BMP280;60848;53.884;11.446;2023-04-01T12:08:15;100226.09;;;6.02
28905;BMP280;60848;53.884;11.446;2023-04-01T12:10:51;100215.28;;;6.00
28905;BMP280;60848;53.884;11.446;2023-04-01T12:13:30;100229.00;;;6.00
28905;BMP280;60848;53.884;11.446;2023-04-01T12:16:18;100244.91;;;5.99
28905;BMP280;60848;53.884;11.446;2023-04-01T12:18:54;100242.25;;;5.95
28905;BMP280;60848;53.884;11.446;2023-04-01T12:21:26;100255.88;;;5.92
28905;BMP280;60848;53.884;11.446;2023-04-01T12:24:25;100236.97;;;5.92
28905;BMP280;60848;53.884;11.446;2023-04-01T12:27:02;100247.03;;;5.93
28905;BMP280;60848;53.884;11.446;2023-04-01T12:29:43;100278.50;;;5.92
28905;BMP280;60848;53.884;11.446;2023-04-01T12:32:20;100248.44;;;5.91
28905;BMP280;60848;53.884;11.446;2023-04-01T12:34:59;100275.78;;;5.88
28905;BMP280;60848;53.884;11.446;2023-04-01T12:37:35;100267.34;;;5.91
28905;BMP280;60848;53.884;11.446;2023-04-01T12:40:20;100272.22;;;5.93
28905;BMP280;60848;53.884;11.446;2023-04-01T12:43:03;100270.50;;;6.00
28905;BMP280;60848;53.884;11.446;2023-04-01T12:45:34;100276.53;;;6.04
28905;BMP280;60848;53.884;11.446;2023-04-01T12:48:30;100277.47;;;6.12
28905;BMP280;60848;53.884;11.446;2023-04-01T12:51:30;100304.56;;;6.14
28905;BMP280;60848;53.884;11.446;2023-04-01T12:54:16;100289.63;;;6.08
28905;BMP280;60848;53.884;11.446;2023-04-01T12:56:49;100301.41;;;6.05
28905;BMP280;60848;53.884;11.446;2023-04-01T12:59:28;100299.16;;;6.04
28905;BMP280;60848;53.884;11.446;2023-04-01T13:02:13;100298.06;;;6.05
28905;BMP280;60848;53.884;11.446;2023-04-01T13:07:46;100324.53;;;6.10
28905;BMP280;60848;53.884;11.446;2023-04-01T13:10:31;100309.34;;;6.12
28905;BMP280;60848;53.884;11.446;2023-04-01T13:16:04;100320.25;;;6.18
28905;BMP280;60848;53.884;11.446;2023-04-01T13:18:39;100322.84;;;6.18
28905;BMP280;60848;53.884;11.446;2023-04-01T13:21:13;100318.66;;;6.13
28905;BMP280;60848;53.884;11.446;2023-04-01T13:23:51;100330.53;;;6.14
28905;BMP280;60848;53.884;11.446;2023-04-01T13:26:27;100330.94;;;6.16
28905;BMP280;60848;53.884;11.446;2023-04-01T13:28:59;100334.31;;;6.17
28905;BMP280;60848;53.884;11.446;2023-04-01T13:31:38;100334.72;;;6.19
28905;BMP280;60848;53.884;11.446;2023-04-01T13:34:27;100339.91;;;6.19
28905;BMP280;60848;53.884;11.446;2023-04-01T13:37:05;100342.09;;;6.17
28905;BMP280;60848;53.884;11.446;2023-04-01T13:39:46;100342.69;;;6.10
28905;BMP280;60848;53.884;11.446;2023-04-01T13:42:22;100348.22;;;6.09
28905;BMP280;60848;53.884;11.446;2023-04-01T13:44:54;100357.53;;;6.10
28905;BMP280;60848;53.884;11.446;2023-04-01T13:47:49;100365.53;;;6.05
28905;BMP280;60848;53.884;11.446;2023-04-01T13:50:32;100357.66;;;6.01
28905;BMP280;60848;53.884;11.446;2023-04-01T13:53:16;100362.03;;;5.97
28905;BMP280;60848;53.884;11.446;2023-04-01T13:56:08;100377.25;;;5.99
28905;BMP280;60848;53.884;11.446;2023-04-01T13:58:55;100390.22;;;5.99
28905;BMP280;60848;53.884;11.446;2023-04-01T14:01:28;100387.91;;;5.94
28905;BMP280;60848;53.884;11.446;2023-04-01T14:04:25;100381.19;;;5.93
28905;BMP280;60848;53.884;11.446;2023-04-01T14:07:02;100408.09;;;5.88
28905;BMP280;60848;53.884;11.446;2023-04-01T14:09:45;100393.88;;;5.82
28905;BMP280;60848;53.884;11.446;2023-04-01T14:12:20;100401.66;;;5.82
28905;BMP280;60848;53.884;11.446;2023-04-01T14:15:02;100401.31;;;5.84
28905;BMP280;60848;53.884;11.446;2023-04-01T14:17:46;100416.66;;;5.89
28905;BMP280;60848;53.884;11.446;2023-04-01T14:20:36;100415.78;;;5.85
28905;BMP280;60848;53.884;11.446;2023-04-01T14:23:15;100407.38;;;5.88
28905;BMP280;60848;53.884;11.446;2023-04-01T14:26:07;100407.56;;;5.95
28905;BMP280;60848;53.884;11.446;2023-04-01T14:28:43;100420.09;;;5.93
28905;BMP280;60848;53.884;11.446;2023-04-01T14:31:25;100415.88;;;5.88
28905;BMP280;60848;53.884;11.446;2023-04-01T14:34:00;100423.91;;;5.83
28905;BMP280;60848;53.884;11.446;2023-04-01T14:36:41;100428.13;;;5.88
28905;BMP280;60848;53.884;11.446;2023-04-01T14:39:20;100421.75;;;5.85
28905;BMP280;60848;53.884;11.446;2023-04-01T14:41:57;100424.16;;;5.78
28905;BMP280;60848;53.884;11.446;2023-04-01T14:44:55;100430.59;;;5.84
28905;BMP280;60848;53.884;11.446;2023-04-01T14:47:39;100439.56;;;5.87
28905;BMP280;60848;53.884;11.446;2023-04-01T14:50:13;100445.09;;;5.85
28905;BMP280;60848;53.884;11.446;2023-04-01T14:52:46;100446.28;;;5.88
28905;BMP280;60848;53.884;11.446;2023-04-01T14:55:26;100468.78;;;5.84
28905;BMP280;60848;53.884;11.446;2023-04-01T14:57:59;100463.50;;;5.80
28905;BMP280;60848;53.884;11.446;2023-04-01T15:00:31;100458.22;;;5.77
28905;BMP280;60848;53.884;11.446;2023-04-01T15:03:12;100464.16;;;5.77
28905;BMP280;60848;53.884;11.446;2023-04-01T15:05:45;100478.53;;;5.74
28905;BMP280;60848;53.884;11.446;2023-04-01T15:08:18;100473.69;;;5.73
28905;BMP280;60848;53.884;11.446;2023-04-01T15:11:12;100470.56;;;5.67
28905;BMP280;60848;53.884;11.446;2023-04-01T15:16:55;100499.09;;;5.55
28905;BMP280;60848;53.884;11.446;2023-04-01T15:19:33;100496.44;;;5.52
28905;BMP280;60848;53.884;11.446;2023-04-01T15:22:25;100503.09;;;5.53
28905;BMP280;60848;53.884;11.446;2023-04-01T15:25:05;100497.50;;;5.51
28905;BMP280;60848;53.884;11.446;2023-04-01T15:27:37;100497.38;;;5.47
28905;BMP280;60848;53.884;11.446;2023-04-01T15:30:21;100507.44;;;5.49
28905;BMP280;60848;53.884;11.446;2023-04-01T15:33:13;100511.13;;;5.48
28905;BMP280;60848;53.884;11.446;2023-04-01T15:35:48;100527.75;;;5.47
28905;BMP280;60848;53.884;11.446;2023-04-01T15:38:26;100508.63;;;5.51
28905;BMP280;60848;53.884;11.446;2023-04-01T15:41:00;100523.84;;;5.53
28905;BMP280;60848;53.884;11.446;2023-04-01T15:43:36;100517.81;;;5.49
28905;BMP280;60848;53.884;11.446;2023-04-01T15:46:15;100525.72;;;5.52
28905;BMP280;60848;53.884;11.446;2023-04-01T15:48:56;100548.28;;;5.52
28905;BMP280;60848;53.884;11.446;2023-04-01T15:57:39;100553.38;;;5.48
28905;BMP280;60848;53.884;11.446;2023-04-01T16:00:19;100556.06;;;5.52
28905;BMP280;60848;53.884;11.446;2023-04-01T16:02:50;100563.47;;;5.53
28905;BMP280;60848;53.884;11.446;2023-04-01T16:05:29;100585.44;;;5.56
28905;BMP280;60848;53.884;11.446;2023-04-01T16:08:14;100577.91;;;5.51
28905;BMP280;60848;53.884;11.446;2023-04-01T16:10:59;100558.44;;;5.45
28905;BMP280;60848;53.884;11.446;2023-04-01T16:13:41;100578.41;;;5.44
28905;BMP280;60848;53.884;11.446;2023-04-01T16:16:18;100557.69;;;5.44
28905;BMP280;60848;53.884;11.446;2023-04-01T16:18:58;100586.84;;;5.41
28905;BMP280;60848;53.884;11.446;2023-04-01T16:21:37;100600.81;;;5.37
28905;BMP280;60848;53.884;11.446;2023-04-01T16:24:13;100586.63;;;5.34
28905;BMP280;60848;53.884;11.446;2023-04-01T16:26:47;100596.56;;;5.32